Time;durP1;ratioP1;P1;durP2;ratioP2;P2;SDS_P1;SDS_P2;PMS_P1;PMS_P2;Temp;Humidity;BMP_temperature;BMP_pressure;BME280_temperature;BME280_humidity;BME280_pressure;Samples;Min_cycle;Max_cycle;Signal;HPM_P1;HPM_P2
2024/02/24 00:00:29;;;;;;;12.73;7.57;;;;;;;;;;5054825;28;20068;-64
2024/02/24 00:02:54;;;;;;;12.43;7.70;;;;;;;;;;5054951;28;20033;-64
2024/02/24 00:05:20;;;;;;;11.50;6.97;;;;;;;;;;5054763;28;20396;-64
2024/02/24 00:07:45;;;;;;;11.05;7.22;;;;;;;;;;5054959;28;20102;-64
2024/02/24 00:10:12;;;;;;;14.13;8.02;;;;;;;;;;5055251;28;20066;-64
2024/02/24 00:12:37;;;;;;;23.52;12.20;;;;;;;;;;5053719;28;20033;-64
2024/02/24 00:15:03;;;;;;;11.88;7.78;;;;;;;;;;5054533;28;20430;-64
2024/02/24 00:17:28;;;;;;;16.58;10.38;;;;;;;;;;5091793;22;20415;-69
2024/02/24 00:19:53;;;;;;;23.33;11.80;;;;;;;;;;5077148;22;20069;-69
2024/02/24 00:22:19;;;;;;;13.93;7.97;;;;;;;;;;5053129;28;20472;-69
2024/02/24 00:24:44;;;;;;;12.65;7.45;;;;;;;;;;5054377;28;20064;-69
2024/02/24 00:27:11;;;;;;;6.68;5.57;;;;;;;;;;5054376;28;20025;-69
2024/02/24 00:29:36;;;;;;;7.47;5.60;;;;;;;;;;5053061;28;20025;-69
2024/02/24 00:32:02;;;;;;;12.13;6.22;;;;;;;;;;5054872;28;20043;-70
2024/02/24 00:34:27;;;;;;;16.90;6.75;;;;;;;;;;5053537;28;20032;-69
2024/02/24 00:36:53;;;;;;;17.15;7.15;;;;;;;;;;5054450;28;20388;-70
2024/02/24 00:39:19;;;;;;;14.95;6.95;;;;;;;;;;5054412;28;20090;-69
2024/02/24 00:41:44;;;;;;;16.88;7.38;;;;;;;;;;5054119;28;20040;-69
2024/02/24 00:44:09;;;;;;;17.17;7.38;;;;;;;;;;5054282;28;20055;-69
2024/02/24 00:46:35;;;;;;;9.75;6.07;;;;;;;;;;5052748;28;20027;-69
2024/02/24 00:49:00;;;;;;;9.13;5.68;;;;;;;;;;5052748;28;20029;-69
2024/02/24 00:51:26;;;;;;;11.75;6.80;;;;;;;;;;5054210;28;20021;-69
2024/02/24 00:53:52;;;;;;;10.18;5.53;;;;;;;;;;5054077;28;20384;-69
2024/02/24 00:56:17;;;;;;;5.45;4.55;;;;;;;;;;5054124;28;20115;-70
2024/02/24 00:58:42;;;;;;;4.68;4.25;;;;;;;;;;5053843;28;20027;-70
2024/02/24 01:01:09;;;;;;;4.78;4.25;;;;;;;;;;5053162;28;20044;-70
2024/02/24 01:03:35;;;;;;;5.15;4.15;;;;;;;;;;5053677;28;20033;-70
2024/02/24 01:06:01;;;;;;;4.40;4.00;;;;;;;;;;5052439;28;20029;-69
2024/02/24 01:08:26;;;;;;;3.97;3.58;;;;;;;;;;5052409;28;20078;-70
2024/02/24 01:10:51;;;;;;;4.20;3.17;;;;;;;;;;5053691;28;20388;-69
2024/02/24 01:13:17;;;;;;;4.65;3.42;;;;;;;;;;5054164;28;20021;-69
2024/02/24 01:15:42;;;;;;;3.35;3.03;;;;;;;;;;5053885;28;20465;-70
2024/02/24 01:18:08;;;;;;;3.45;2.95;;;;;;;;;;5053870;28;20029;-70
2024/02/24 01:20:33;;;;;;;3.08;2.53;;;;;;;;;;5053747;28;20052;-69
2024/02/24 01:23:00;;;;;;;3.15;2.85;;;;;;;;;;5052142;28;20536;-69
2024/02/24 01:25:25;;;;;;;2.72;2.47;;;;;;;;;;5053483;28;20078;-69
2024/02/24 01:27:51;;;;;;;2.92;2.67;;;;;;;;;;5052240;28;20048;-69
2024/02/24 01:30:16;;;;;;;3.00;2.80;;;;;;;;;;5053675;28;20032;-69
2024/02/24 01:32:42;;;;;;;2.78;2.58;;;;;;;;;;5053710;28;20100;-69
2024/02/24 01:35:07;;;;;;;2.92;2.70;;;;;;;;;;5053738;28;20033;-64
2024/02/24 01:37:33;;;;;;;2.65;2.30;;;;;;;;;;5054157;28;20060;-63
2024/02/24 01:39:58;;;;;;;3.13;2.30;;;;;;;;;;5052575;28;20035;-64
2024/02/24 01:42:24;;;;;;;2.13;2.03;;;;;;;;;;5053351;28;20037;-64
2024/02/24 01:44:50;;;;;;;2.60;2.40;;;;;;;;;;5053788;28;20052;-64
2024/02/24 01:47:16;;;;;;;2.42;2.22;;;;;;;;;;5052018;28;20029;-64
2024/02/24 01:50:20;;;;;;;2.75;2.47;;;;;;;;;;5076338;22;20064;-64
2024/02/24 01:52:49;;;;;;;3.42;2.30;;;;;;;;;;5084150;28;20500;-64
2024/02/24 01:55:16;;;;;;;2.60;2.40;;;;;;;;;;5068734;28;20141;-63
2024/02/24 01:57:43;;;;;;;2.50;2.30;;;;;;;;;;5051950;28;20029;-64
2024/02/24 02:00:09;;;;;;;2.50;2.30;;;;;;;;;;5053176;28;20107;-63
2024/02/24 02:02:42;;;;;;;2.50;2.30;;;;;;;;;;5053033;28;20037;-64
2024/02/24 02:05:07;;;;;;;2.55;2.35;;;;;;;;;;5120113;22;20060;-63
2024/02/24 02:07:33;;;;;;;2.50;2.30;;;;;;;;;;5097283;28;20035;-63
2024/02/24 02:09:59;;;;;;;2.63;2.42;;;;;;;;;;5097270;28;20114;-63
2024/02/24 02:12:25;;;;;;;2.42;2.25;;;;;;;;;;5097522;28;20024;-64
2024/02/24 02:14:51;;;;;;;2.42;2.28;;;;;;;;;;5096240;28;20100;-63
2024/02/24 02:17:16;;;;;;;2.70;2.35;;;;;;;;;;5095888;28;20080;-63
2024/02/24 02:19:42;;;;;;;2.65;2.45;;;;;;;;;;5097338;28;20540;-64
2024/02/24 02:22:11;;;;;;;3.63;2.78;;;;;;;;;;5097347;28;20042;-64
2024/02/24 02:24:37;;;;;;;2.40;2.20;;;;;;;;;;5096908;28;20072;-64
2024/02/24 02:27:06;;;;;;;2.33;2.22;;;;;;;;;;5097522;28;20370;-64
2024/02/24 02:29:32;;;;;;;2.60;2.40;;;;;;;;;;5097447;28;20028;-64
2024/02/24 02:31:57;;;;;;;2.90;2.70;;;;;;;;;;5095568;28;20024;-63
2024/02/24 02:34:23;;;;;;;3.33;2.50;;;;;;;;;;5096799;28;20100;-64
2024/02/24 02:36:48;;;;;;;3.00;2.42;;;;;;;;;;5097049;28;20032;-64
2024/02/24 02:39:14;;;;;;;3.35;2.45;;;;;;;;;;5096992;28;20107;-64
2024/02/24 02:41:39;;;;;;;2.92;2.50;;;;;;;;;;5095398;28;20054;-63
2024/02/24 02:44:04;;;;;;;2.88;2.53;;;;;;;;;;5097117;28;20055;-64
2024/02/24 02:46:30;;;;;;;2.50;2.30;;;;;;;;;;5095312;28;20090;-64
2024/02/24 02:48:55;;;;;;;2.72;2.53;;;;;;;;;;5078385;28;20024;-64
2024/02/24 02:51:21;;;;;;;2.33;2.15;;;;;;;;;;5096757;28;20024;-64
2024/02/24 02:53:46;;;;;;;2.40;2.30;;;;;;;;;;5096717;28;20024;-64
2024/02/24 02:56:12;;;;;;;2.97;2.70;;;;;;;;;;5095193;28;20360;-64
2024/02/24 02:58:37;;;;;;;2.88;2.35;;;;;;;;;;5095693;28;20032;-64
2024/02/24 03:01:03;;;;;;;2.67;2.47;;;;;;;;;;5095128;28;20445;-64
2024/02/24 03:03:29;;;;;;;2.80;2.60;;;;;;;;;;5096129;28;20097;-65
2024/02/24 03:05:55;;;;;;;2.42;2.33;;;;;;;;;;5096362;28;20032;-64
2024/02/24 03:08:20;;;;;;;2.65;2.45;;;;;;;;;;5095499;28;20349;-64
2024/02/24 03:10:45;;;;;;;2.42;2.30;;;;;;;;;;5096414;28;20028;-64
2024/02/24 03:13:11;;;;;;;2.70;2.50;;;;;;;;;;5096053;28;20036;-64
2024/02/24 03:15:37;;;;;;;3.22;2.97;;;;;;;;;;5094772;28;20020;-64
2024/02/24 03:18:02;;;;;;;3.30;3.10;;;;;;;;;;5094650;28;20457;-65
2024/02/24 03:20:28;;;;;;;3.00;2.80;;;;;;;;;;5097895;28;20028;-64
2024/02/24 03:22:53;;;;;;;2.92;2.72;;;;;;;;;;5098530;28;20028;-64
2024/02/24 03:25:19;;;;;;;2.70;2.53;;;;;;;;;;5096486;28;20532;-64
2024/02/24 03:27:44;;;;;;;2.65;2.50;;;;;;;;;;5096063;28;20028;-64
2024/02/24 03:30:10;;;;;;;4.00;2.22;;;;;;;;;;5096007;28;20471;-64
2024/02/24 03:32:36;;;;;;;3.85;2.63;;;;;;;;;;5095971;28;20479;-64
2024/02/24 03:35:02;;;;;;;2.63;2.42;;;;;;;;;;5094410;28;20031;-64
2024/02/24 03:37:27;;;;;;;3.08;2.78;;;;;;;;;;5095886;28;20468;-65
2024/02/24 03:39:53;;;;;;;2.83;2.70;;;;;;;;;;5095548;28;20479;-64
2024/02/24 03:42:19;;;;;;;2.88;2.47;;;;;;;;;;5094596;28;20032;-64
2024/02/24 03:44:45;;;;;;;2.88;2.67;;;;;;;;;;5095671;28;20051;-64
2024/02/24 03:47:10;;;;;;;2.88;2.67;;;;;;;;;;5094201;28;20028;-64
2024/02/24 03:49:36;;;;;;;3.03;2.90;;;;;;;;;;5095916;28;20074;-64
2024/02/24 03:52:02;;;;;;;2.90;2.65;;;;;;;;;;5095309;28;20028;-64
2024/02/24 03:54:27;;;;;;;2.90;2.70;;;;;;;;;;5095529;28;20059;-64
2024/02/24 03:56:53;;;;;;;2.33;2.22;;;;;;;;;;5093973;28;20031;-64
2024/02/24 03:59:19;;;;;;;2.58;2.40;;;;;;;;;;5094236;28;20055;-64
2024/02/24 04:01:44;;;;;;;2.95;2.75;;;;;;;;;;5094536;28;20032;-64
2024/02/24 04:04:09;;;;;;;3.13;2.92;;;;;;;;;;5095010;28;20032;-64
2024/02/24 04:06:35;;;;;;;2.50;2.30;;;;;;;;;;5094871;28;20111;-64
2024/02/24 04:09:00;;;;;;;2.65;2.55;;;;;;;;;;5095254;28;20020;-64
2024/02/24 04:11:26;;;;;;;2.42;2.22;;;;;;;;;;5095508;28;20336;-64
2024/02/24 04:13:51;;;;;;;2.03;1.92;;;;;;;;;;5095154;28;20032;-64
2024/02/24 04:16:17;;;;;;;2.47;2.20;;;;;;;;;;5095137;28;20500;-64
2024/02/24 04:18:42;;;;;;;2.10;2.00;;;;;;;;;;5096697;22;20041;-69
2024/02/24 04:21:07;;;;;;;1.60;1.50;;;;;;;;;;5074700;28;20028;-63
2024/02/24 04:23:33;;;;;;;1.75;1.65;;;;;;;;;;5074345;28;20460;-64
2024/02/24 04:25:58;;;;;;;2.03;1.92;;;;;;;;;;5073133;28;20056;-64
2024/02/24 04:28:24;;;;;;;2.10;1.90;;;;;;;;;;5072338;28;20032;-64
2024/02/24 04:30:49;;;;;;;1.70;1.60;;;;;;;;;;5074520;28;20036;-64
2024/02/24 04:33:16;;;;;;;1.70;1.60;;;;;;;;;;5056350;28;20028;-64
2024/02/24 04:35:42;;;;;;;1.58;1.48;;;;;;;;;;5073335;28;20054;-64
2024/02/24 04:38:07;;;;;;;1.38;1.33;;;;;;;;;;5074080;28;20466;-64
2024/02/24 04:40:36;;;;;;;1.65;1.55;;;;;;;;;;5072966;28;20040;-64
2024/02/24 04:43:01;;;;;;;1.70;1.60;;;;;;;;;;5072721;28;20120;-64
2024/02/24 04:45:27;;;;;;;1.60;1.50;;;;;;;;;;5074470;28;20099;-69
2024/02/24 04:47:52;;;;;;;1.70;1.60;;;;;;;;;;5073962;28;20028;-70
2024/02/24 04:50:17;;;;;;;1.67;1.58;;;;;;;;;;5074194;28;20016;-64
2024/02/24 04:52:43;;;;;;;1.23;1.23;;;;;;;;;;5072785;28;20499;-64
2024/02/24 04:55:08;;;;;;;1.70;1.60;;;;;;;;;;5073888;28;20383;-64
2024/02/24 04:57:34;;;;;;;1.90;1.80;;;;;;;;;;5073001;28;20036;-64
2024/02/24 04:59:59;;;;;;;1.60;1.30;;;;;;;;;;5074091;28;20047;-64
2024/02/24 05:02:25;;;;;;;2.25;1.35;;;;;;;;;;5072523;28;20020;-64
2024/02/24 05:04:52;;;;;;;1.40;1.30;;;;;;;;;;5073661;28;20039;-64
2024/02/24 05:07:18;;;;;;;1.55;1.42;;;;;;;;;;5072469;28;20028;-64
2024/02/24 05:09:43;;;;;;;1.60;1.50;;;;;;;;;;5073721;28;20074;-64
2024/02/24 05:12:08;;;;;;;1.55;1.45;;;;;;;;;;5072380;28;20032;-64
2024/02/24 05:14:37;;;;;;;1.13;1.13;;;;;;;;;;5073709;28;20026;-69
2024/02/24 05:17:04;;;;;;;1.30;1.30;;;;;;;;;;5099850;22;20048;-64
2024/02/24 05:19:32;;;;;;;1.98;1.38;;;;;;;;;;5102456;22;20051;-71
2024/02/24 05:21:57;;;;;;;1.23;1.13;;;;;;;;;;5094021;28;20071;-69
2024/02/24 05:24:22;;;;;;;1.15;1.15;;;;;;;;;;5092435;28;20071;-71
2024/02/24 05:26:49;;;;;;;1.40;1.30;;;;;;;;;;5094403;28;20124;-71
2024/02/24 05:29:16;;;;;;;1.20;1.20;;;;;;;;;;5094395;28;20028;-70
2024/02/24 05:31:41;;;;;;;1.55;1.20;;;;;;;;;;5093229;28;20031;-70
2024/02/24 05:34:07;;;;;;;1.40;1.30;;;;;;;;;;5093939;28;20032;-69
2024/02/24 05:36:32;;;;;;;1.10;1.10;;;;;;;;;;5093905;28;20429;-69
2024/02/24 05:38:58;;;;;;;1.23;1.13;;;;;;;;;;5075599;28;20479;-69
2024/02/24 05:41:23;;;;;;;1.08;1.08;;;;;;;;;;5096644;28;20107;-69
2024/02/24 05:43:49;;;;;;;2.28;2.17;;;;;;;;;;5097970;28;20028;-70
2024/02/24 05:46:17;;;;;;;2.45;2.30;;;;;;;;;;5096814;28;20027;-69
2024/02/24 05:48:43;;;;;;;1.75;1.65;;;;;;;;;;5097971;28;20043;-69
2024/02/24 05:51:09;;;;;;;1.35;1.25;;;;;;;;;;5097644;28;20028;-69
2024/02/24 05:53:35;;;;;;;1.50;1.40;;;;;;;;;;5097612;28;20024;-69
2024/02/24 05:56:01;;;;;;;1.33;1.27;;;;;;;;;;5097596;28;20031;-69
2024/02/24 05:58:26;;;;;;;1.00;1.00;;;;;;;;;;5097791;28;20032;-69
2024/02/24 06:00:51;;;;;;;1.05;0.95;;;;;;;;;;5098010;28;20057;-69
2024/02/24 06:03:17;;;;;;;1.15;1.05;;;;;;;;;;5097624;28;20032;-70
2024/02/24 06:05:42;;;;;;;0.85;0.85;;;;;;;;;;5096459;28;20131;-69
2024/02/24 06:08:08;;;;;;;1.17;1.10;;;;;;;;;;5097342;28;20028;-70
2024/02/24 06:10:35;;;;;;;1.38;1.08;;;;;;;;;;5097543;28;20375;-69
2024/02/24 06:13:00;;;;;;;1.30;1.10;;;;;;;;;;5097510;28;20493;-69
2024/02/24 06:15:26;;;;;;;1.30;1.20;;;;;;;;;;5097184;28;20028;-69
2024/02/24 06:17:51;;;;;;;1.05;1.02;;;;;;;;;;5097229;28;20061;-69
2024/02/24 06:20:17;;;;;;;1.35;1.25;;;;;;;;;;5097113;28;20032;-69
2024/02/24 06:22:42;;;;;;;1.45;1.35;;;;;;;;;;5097046;28;20024;-69
2024/02/24 06:25:08;;;;;;;1.50;1.17;;;;;;;;;;5097185;28;20115;-69
2024/02/24 06:27:33;;;;;;;2.22;1.30;;;;;;;;;;5106054;22;20041;-64
2024/02/24 06:29:59;;;;;;;1.30;1.20;;;;;;;;;;5096930;28;20107;-64
2024/02/24 06:32:25;;;;;;;1.13;1.08;;;;;;;;;;5095539;28;20048;-64
2024/02/24 06:34:50;;;;;;;0.77;0.77;;;;;;;;;;5095576;28;20060;-63
2024/02/24 06:37:15;;;;;;;1.42;1.20;;;;;;;;;;5096120;22;20131;-64
2024/02/24 06:39:41;;;;;;;1.80;1.25;;;;;;;;;;5067412;22;20111;-70
2024/02/24 06:42:06;;;;;;;1.33;1.23;;;;;;;;;;5056711;28;20021;-69
2024/02/24 06:44:32;;;;;;;0.80;0.80;;;;;;;;;;5056284;28;20064;-69
2024/02/24 06:46:57;;;;;;;1.27;1.17;;;;;;;;;;5055087;28;20108;-69
2024/02/24 06:49:23;;;;;;;1.20;1.10;;;;;;;;;;5054995;28;20146;-69
2024/02/24 06:51:48;;;;;;;1.33;1.23;;;;;;;;;;5055750;28;20422;-69
2024/02/24 06:54:13;;;;;;;3.45;3.15;;;;;;;;;;5056197;28;20036;-69
2024/02/24 06:56:39;;;;;;;1.85;1.67;;;;;;;;;;5055519;28;20033;-69
2024/02/24 06:59:06;;;;;;;1.15;1.13;;;;;;;;;;5056643;28;20024;-70
2024/02/24 07:01:34;;;;;;;0.90;0.90;;;;;;;;;;5056027;28;20076;-70
2024/02/24 07:04:00;;;;;;;1.52;1.40;;;;;;;;;;5056209;28;20381;-70
2024/02/24 07:06:25;;;;;;;2.10;1.85;;;;;;;;;;5054784;28;20025;-70
2024/02/24 07:08:51;;;;;;;1.35;1.20;;;;;;;;;;5054678;28;20163;-69
2024/02/24 07:11:16;;;;;;;1.80;1.70;;;;;;;;;;5055804;28;20477;-69
2024/02/24 07:13:42;;;;;;;1.08;0.50;;;;;;;;;;5054933;28;20017;-69
2024/02/24 07:16:08;;;;;;;1.25;1.23;;;;;;;;;;5055756;28;20060;-69
2024/02/24 07:18:33;;;;;;;1.35;1.25;;;;;;;;;;5056047;28;20025;-69
2024/02/24 07:21:00;;;;;;;2.35;2.10;;;;;;;;;;5054458;28;20053;-70
2024/02/24 07:23:26;;;;;;;3.10;2.25;;;;;;;;;;5054677;28;20047;-69
2024/02/24 07:25:51;;;;;;;2.15;1.98;;;;;;;;;;5057111;28;20084;-70
2024/02/24 07:28:17;;;;;;;3.13;2.42;;;;;;;;;;5057025;28;20017;-70
2024/02/24 07:30:42;;;;;;;3.88;3.03;;;;;;;;;;5056297;28;20032;-70
2024/02/24 07:33:08;;;;;;;3.17;2.95;;;;;;;;;;5055470;28;20461;-69
2024/02/24 07:35:33;;;;;;;2.97;2.78;;;;;;;;;;5055675;28;20017;-69
2024/02/24 07:37:58;;;;;;;2.38;2.17;;;;;;;;;;5055168;28;20380;-69
2024/02/24 07:40:24;;;;;;;2.05;1.95;;;;;;;;;;5055868;28;20035;-69
2024/02/24 07:42:50;;;;;;;1.83;1.73;;;;;;;;;;5055243;28;20013;-69
2024/02/24 07:45:15;;;;;;;2.25;2.05;;;;;;;;;;5054323;28;20040;-69
2024/02/24 07:47:41;;;;;;;1.67;1.58;;;;;;;;;;5055222;28;20029;-69
2024/02/24 07:50:06;;;;;;;2.13;1.90;;;;;;;;;;5055139;28;20023;-63
2024/02/24 07:52:32;;;;;;;1.92;1.83;;;;;;;;;;5054220;28;20048;-64
2024/02/24 07:54:57;;;;;;;1.73;1.63;;;;;;;;;;5054438;28;20369;-63
2024/02/24 07:57:23;;;;;;;1.88;1.77;;;;;;;;;;5054369;28;20033;-63
2024/02/24 07:59:48;;;;;;;1.73;1.63;;;;;;;;;;5054975;28;20028;-63
2024/02/24 08:02:14;;;;;;;1.35;1.33;;;;;;;;;;5053376;28;20029;-63
2024/02/24 08:04:39;;;;;;;2.10;1.95;;;;;;;;;;5053585;28;20457;-63
2024/02/24 08:07:05;;;;;;;2.00;1.90;;;;;;;;;;5053626;28;20025;-63
2024/02/24 08:09:30;;;;;;;2.15;1.95;;;;;;;;;;5054782;28;20017;-63
2024/02/24 08:11:56;;;;;;;2.85;2.40;;;;;;;;;;5054990;28;20151;-63
2024/02/24 08:14:21;;;;;;;2.67;2.47;;;;;;;;;;5054666;28;20516;-63
2024/02/24 08:16:46;;;;;;;2.45;2.33;;;;;;;;;;5055189;28;20036;-63
2024/02/24 08:19:12;;;;;;;2.58;2.38;;;;;;;;;;5053312;28;20033;-63
2024/02/24 08:21:39;;;;;;;2.70;2.40;;;;;;;;;;5054810;28;20033;-64
2024/02/24 08:24:07;;;;;;;2.90;2.60;;;;;;;;;;5053957;28;20476;-64
2024/02/24 08:26:39;;;;;;;2.80;2.60;;;;;;;;;;5054418;28;20488;-63
2024/02/24 08:29:09;;;;;;;1.70;1.60;;;;;;;;;;5053152;28;20037;-64
2024/02/24 08:31:34;;;;;;;2.40;2.20;;;;;;;;;;5054649;28;20055;-64
2024/02/24 08:34:00;;;;;;;3.13;2.92;;;;;;;;;;5054308;28;20574;-63
2024/02/24 08:36:25;;;;;;;2.22;2.05;;;;;;;;;;5054503;28;20029;-64
2024/02/24 08:38:50;;;;;;;2.42;2.22;;;;;;;;;;5054288;28;20083;-64
2024/02/24 08:41:16;;;;;;;2.65;2.45;;;;;;;;;;5054441;28;20025;-64
2024/02/24 08:43:42;;;;;;;3.65;3.35;;;;;;;;;;5054062;28;20392;-64
2024/02/24 08:46:08;;;;;;;3.00;2.80;;;;;;;;;;5052846;28;20063;-64
2024/02/24 08:48:34;;;;;;;2.85;2.65;;;;;;;;;;5052799;28;20064;-64
2024/02/24 08:50:59;;;;;;;3.10;2.90;;;;;;;;;;5054292;28;20021;-64
2024/02/24 08:53:25;;;;;;;3.30;3.00;;;;;;;;;;5052695;28;20045;-63
2024/02/24 08:55:50;;;;;;;3.75;3.45;;;;;;;;;;5053962;28;20029;-64
2024/02/24 08:58:15;;;;;;;5.90;5.22;;;;;;;;;;5053889;28;20396;-64
2024/02/24 09:00:42;;;;;;;5.95;5.38;;;;;;;;;;5052597;28;20048;-64
2024/02/24 09:03:07;;;;;;;6.07;5.57;;;;;;;;;;5054309;28;20029;-64
2024/02/24 09:05:33;;;;;;;5.72;5.22;;;;;;;;;;5054072;28;20027;-64
2024/02/24 09:07:59;;;;;;;5.80;4.93;;;;;;;;;;5054054;28;20464;-64
2024/02/24 09:10:24;;;;;;;5.10;4.63;;;;;;;;;;5053718;28;20472;-64
2024/02/24 09:12:50;;;;;;;7.00;4.97;;;;;;;;;;5053976;28;20060;-64
2024/02/24 09:15:15;;;;;;;5.60;5.03;;;;;;;;;;5052036;28;20029;-64
2024/02/24 09:17:41;;;;;;;6.07;5.43;;;;;;;;;;5052375;28;20032;-64
2024/02/24 09:20:08;;;;;;;6.97;6.22;;;;;;;;;;5052285;28;20071;-63
2024/02/24 09:22:34;;;;;;;7.13;5.85;;;;;;;;;;5053524;28;20047;-63
2024/02/24 09:24:59;;;;;;;6.78;6.13;;;;;;;;;;5054061;28;20029;-63
2024/02/24 09:27:25;;;;;;;8.23;5.85;;;;;;;;;;5052287;28;20380;-63
2024/02/24 09:29:50;;;;;;;10.32;7.00;;;;;;;;;;5053778;28;20116;-64
2024/02/24 09:32:17;;;;;;;6.75;5.75;;;;;;;;;;5053735;28;20033;-64
2024/02/24 09:34:43;;;;;;;7.80;6.10;;;;;;;;;;5052254;28;20039;-64
2024/02/24 09:37:09;;;;;;;7.25;5.43;;;;;;;;;;5052204;28;20576;-64
2024/02/24 09:39:35;;;;;;;9.00;5.97;;;;;;;;;;5052050;28;20041;-64
2024/02/24 09:42:00;;;;;;;7.28;5.43;;;;;;;;;;5052178;28;20053;-64
2024/02/24 09:44:28;;;;;;;5.78;5.28;;;;;;;;;;5053275;28;20490;-64
2024/02/24 09:46:54;;;;;;;7.38;5.68;;;;;;;;;;5053897;28;20013;-64
2024/02/24 09:49:20;;;;;;;5.05;4.70;;;;;;;;;;5053584;28;20033;-64
2024/02/24 09:51:48;;;;;;;6.30;5.53;;;;;;;;;;5052039;28;20078;-69
2024/02/24 09:54:13;;;;;;;4.60;4.20;;;;;;;;;;5053299;28;20037;-69
2024/02/24 09:56:38;;;;;;;4.43;4.13;;;;;;;;;;5053593;28;20032;-69
2024/02/24 09:59:04;;;;;;;3.10;2.90;;;;;;;;;;5053502;28;20043;-69
2024/02/24 10:01:30;;;;;;;3.28;3.08;;;;;;;;;;5051972;28;20021;-69
2024/02/24 10:03:55;;;;;;;2.78;2.67;;;;;;;;;;5052185;28;20159;-69
2024/02/24 10:06:20;;;;;;;4.63;4.22;;;;;;;;;;5053210;28;20384;-69
2024/02/24 10:08:47;;;;;;;4.47;4.03;;;;;;;;;;5053286;28;20037;-64
2024/02/24 10:11:13;;;;;;;4.72;4.22;;;;;;;;;;5053657;28;20025;-64
2024/02/24 10:13:38;;;;;;;4.03;3.67;;;;;;;;;;5058239;22;20381;-71
2024/02/24 10:16:07;;;;;;;4.43;4.13;;;;;;;;;;5051849;28;20036;-64
2024/02/24 10:18:33;;;;;;;3.40;3.05;;;;;;;;;;5035212;28;20036;-64
2024/02/24 10:20:58;;;;;;;3.38;3.10;;;;;;;;;;5053065;28;20188;-64
2024/02/24 10:23:24;;;;;;;3.55;2.63;;;;;;;;;;5053166;28;20392;-64
2024/02/24 10:25:49;;;;;;;3.13;2.92;;;;;;;;;;5053245;28;20039;-64
2024/02/24 10:28:16;;;;;;;2.85;2.65;;;;;;;;;;5056857;28;20060;-64
2024/02/24 10:30:47;;;;;;;3.55;3.25;;;;;;;;;;5056942;28;20059;-64
2024/02/24 10:33:14;;;;;;;3.58;3.28;;;;;;;;;;5056930;28;20056;-64
2024/02/24 10:35:40;;;;;;;3.25;3.00;;;;;;;;;;5055378;28;20021;-64
2024/02/24 10:38:06;;;;;;;2.35;2.17;;;;;;;;;;5056815;28;20021;-64
2024/02/24 10:40:32;;;;;;;3.13;2.65;;;;;;;;;;5055206;28;20389;-64
2024/02/24 10:42:58;;;;;;;2.35;2.15;;;;;;;;;;5055464;28;20009;-64
2024/02/24 10:45:26;;;;;;;2.55;2.35;;;;;;;;;;5056388;28;20036;-64
2024/02/24 10:47:52;;;;;;;2.72;2.50;;;;;;;;;;5055077;28;20380;-64
2024/02/24 10:50:18;;;;;;;2.53;2.33;;;;;;;;;;5056577;28;20037;-69
2024/02/24 10:52:43;;;;;;;2.50;2.30;;;;;;;;;;5055370;28;20029;-69
2024/02/24 10:55:09;;;;;;;3.03;2.45;;;;;;;;;;5056494;28;20021;-64
2024/02/24 10:57:35;;;;;;;0.60;0.60;;;;;;;;;;5056445;28;20065;-64
2024/02/24 11:00:20;;;;;;;4.53;2.20;;;;;;;;;;5056397;28;20029;-64
2024/02/24 11:02:46;;;;;;;2.20;2.00;;;;;;;;;;5056170;28;20468;-64
2024/02/24 11:05:14;;;;;;;2.03;1.88;;;;;;;;;;5056228;28;20024;-63
2024/02/24 11:07:40;;;;;;;1.50;1.40;;;;;;;;;;5055969;28;20029;-63
2024/02/24 11:10:13;;;;;;;1.90;1.60;;;;;;;;;;5054748;28;20036;-64
2024/02/24 11:12:39;;;;;;;1.20;1.20;;;;;;;;;;5056209;28;20029;-64
2024/02/24 11:15:05;;;;;;;2.03;1.77;;;;;;;;;;5055625;28;20048;-64
2024/02/24 11:17:52;;;;;;;2.13;1.77;;;;;;;;;;5056073;28;20047;-69
2024/02/24 11:20:39;;;;;;;3.03;1.80;;;;;;;;;;5056019;28;20029;-69
2024/02/24 11:23:18;;;;;;;2.25;1.70;;;;;;;;;;5056163;28;20029;-69
2024/02/24 11:25:44;;;;;;;1.63;1.52;;;;;;;;;;5055903;28;20460;-64
2024/02/24 11:28:18;;;;;;;2.17;1.98;;;;;;;;;;5055609;28;20029;-64
2024/02/24 11:30:44;;;;;;;2.88;1.95;;;;;;;;;;5055844;28;20079;-64
2024/02/24 11:33:30;;;;;;;2.47;2.28;;;;;;;;;;5056062;28;20033;-64
2024/02/24 11:35:58;;;;;;;2.65;2.05;;;;;;;;;;5055453;28;20074;-64
2024/02/24 11:38:24;;;;;;;2.58;2.28;;;;;;;;;;5055068;28;20029;-64
2024/02/24 11:40:50;;;;;;;2.85;2.60;;;;;;;;;;5054464;28;20029;-64
2024/02/24 11:43:16;;;;;;;4.65;3.33;;;;;;;;;;5053986;28;20025;-63
2024/02/24 11:45:48;;;;;;;3.60;3.30;;;;;;;;;;5054036;28;20033;-64
2024/02/24 11:48:14;;;;;;;2.63;2.30;;;;;;;;;;5055497;28;20087;-63
2024/02/24 11:50:40;;;;;;;4.55;2.58;;;;;;;;;;5055175;28;20369;-64
2024/02/24 11:53:06;;;;;;;2.85;2.58;;;;;;;;;;5055127;28;20127;-63
2024/02/24 11:55:31;;;;;;;3.15;2.75;;;;;;;;;;5055077;28;20052;-63
2024/02/24 11:57:57;;;;;;;4.95;2.60;;;;;;;;;;5055032;28;20387;-64
2024/02/24 12:00:22;;;;;;;3.22;2.55;;;;;;;;;;5054959;28;20017;-64
2024/02/24 12:02:55;;;;;;;4.57;3.63;;;;;;;;;;5053805;28;20035;-63
2024/02/24 12:05:20;;;;;;;3.10;2.80;;;;;;;;;;5053519;28;20033;-64
2024/02/24 12:07:46;;;;;;;2.50;2.15;;;;;;;;;;5055402;28;20033;-64
2024/02/24 12:10:12;;;;;;;2.53;2.33;;;;;;;;;;5053502;28;20024;-64
2024/02/24 12:12:38;;;;;;;2.70;2.05;;;;;;;;;;5053502;28;20084;-63
2024/02/24 12:15:03;;;;;;;1.67;1.58;;;;;;;;;;5054531;28;20044;-64
2024/02/24 12:17:29;;;;;;;1.88;1.77;;;;;;;;;;5053795;28;20052;-64
2024/02/24 12:19:55;;;;;;;2.97;1.70;;;;;;;;;;5055144;28;20029;-64
2024/02/24 12:22:24;;;;;;;1.88;1.77;;;;;;;;;;5054580;28;20064;-64
2024/02/24 12:24:49;;;;;;;1.90;1.77;;;;;;;;;;5053548;28;20449;-64
2024/02/24 12:27:15;;;;;;;1.88;1.67;;;;;;;;;;5053198;28;20064;-64
2024/02/24 12:29:40;;;;;;;2.08;1.88;;;;;;;;;;5054978;28;20064;-63
2024/02/24 12:32:06;;;;;;;3.80;2.38;;;;;;;;;;5054632;28;20036;-64
2024/02/24 12:34:32;;;;;;;1.95;1.85;;;;;;;;;;5053403;28;20028;-64
2024/02/24 12:36:57;;;;;;;2.08;1.95;;;;;;;;;;5054289;28;20029;-63
2024/02/24 12:39:24;;;;;;;6.72;3.97;;;;;;;;;;5054774;28;20017;-64
2024/02/24 12:41:49;;;;;;;3.53;2.63;;;;;;;;;;5054511;28;20040;-64
2024/02/24 12:44:16;;;;;;;4.13;2.90;;;;;;;;;;5054124;28;20033;-64
2024/02/24 12:46:41;;;;;;;2.67;2.47;;;;;;;;;;5053141;28;20021;-64
2024/02/24 12:49:07;;;;;;;3.88;2.17;;;;;;;;;;5053503;28;20031;-64
2024/02/24 12:51:34;;;;;;;2.10;1.90;;;;;;;;;;5054043;28;20044;-69
2024/02/24 12:54:00;;;;;;;3.22;2.30;;;;;;;;;;5053929;28;20036;-70
2024/02/24 12:56:25;;;;;;;2.33;1.98;;;;;;;;;;5054240;28;20036;-70
2024/02/24 12:58:51;;;;;;;2.20;2.00;;;;;;;;;;5053892;28;20064;-64
2024/02/24 13:01:17;;;;;;;2.67;2.20;;;;;;;;;;5052625;28;20108;-63
2024/02/24 13:03:42;;;;;;;1.85;1.60;;;;;;;;;;5054063;28;20041;-64
2024/02/24 13:06:09;;;;;;;2.58;2.13;;;;;;;;;;5053818;28;20020;-64
2024/02/24 13:08:34;;;;;;;2.70;2.50;;;;;;;;;;5054107;28;20051;-64
2024/02/24 13:11:01;;;;;;;2.80;2.60;;;;;;;;;;5052494;28;20452;-64
2024/02/24 13:13:26;;;;;;;2.70;2.13;;;;;;;;;;5052276;28;20455;-64
2024/02/24 13:15:52;;;;;;;2.25;2.05;;;;;;;;;;5052412;28;20033;-64
2024/02/24 13:18:18;;;;;;;2.67;2.15;;;;;;;;;;5052411;28;20029;-64
2024/02/24 13:20:43;;;;;;;2.17;1.98;;;;;;;;;;5053100;28;20487;-71
2024/02/24 13:23:09;;;;;;;3.03;2.30;;;;;;;;;;5109566;22;20053;-71
2024/02/24 13:25:35;;;;;;;2.22;2.03;;;;;;;;;;5052286;28;20029;-71
2024/02/24 13:28:03;;;;;;;2.05;1.85;;;;;;;;;;5053828;28;20031;-71
2024/02/24 13:30:29;;;;;;;2.63;1.80;;;;;;;;;;5053490;28;20417;-71
2024/02/24 13:32:55;;;;;;;2.22;2.00;;;;;;;;;;5063278;22;20130;-71
2024/02/24 13:35:20;;;;;;;2.58;2.38;;;;;;;;;;5063728;22;20056;-65
2024/02/24 13:37:45;;;;;;;3.33;2.45;;;;;;;;;;5053699;28;20087;-65
2024/02/24 13:40:11;;;;;;;2.83;2.60;;;;;;;;;;5053999;28;20037;-65
2024/02/24 13:42:36;;;;;;;2.97;2.22;;;;;;;;;;5053646;28;20516;-65
2024/02/24 13:45:03;;;;;;;2.38;2.08;;;;;;;;;;5052034;28;20036;-65
2024/02/24 13:47:28;;;;;;;2.28;2.08;;;;;;;;;;5053657;28;20051;-65
2024/02/24 13:49:54;;;;;;;2.03;1.92;;;;;;;;;;5053366;28;20013;-65
2024/02/24 13:52:19;;;;;;;2.13;1.98;;;;;;;;;;5052134;28;20032;-65
2024/02/24 13:54:45;;;;;;;2.20;2.00;;;;;;;;;;5053538;28;20029;-65
2024/02/24 13:57:10;;;;;;;2.58;1.92;;;;;;;;;;5052382;28;20112;-65
2024/02/24 13:59:36;;;;;;;2.13;1.92;;;;;;;;;;5053215;28;20025;-65
2024/02/24 14:02:01;;;;;;;2.00;1.80;;;;;;;;;;5057266;28;20064;-65
2024/02/24 14:04:27;;;;;;;3.03;2.20;;;;;;;;;;5056225;28;20033;-65
2024/02/24 14:06:52;;;;;;;2.63;1.95;;;;;;;;;;5057438;28;20410;-65
2024/02/24 14:09:18;;;;;;;2.10;1.92;;;;;;;;;;5055846;28;20036;-65
2024/02/24 14:11:43;;;;;;;2.67;2.00;;;;;;;;;;5055842;28;20043;-65
2024/02/24 14:14:08;;;;;;;3.97;2.83;;;;;;;;;;5057555;28;20021;-65
2024/02/24 14:16:34;;;;;;;3.92;2.67;;;;;;;;;;5057237;28;20025;-65
2024/02/24 14:19:00;;;;;;;3.45;2.65;;;;;;;;;;5055629;28;20120;-65
2024/02/24 14:21:25;;;;;;;2.47;1.92;;;;;;;;;;5057174;28;20045;-65
2024/02/24 14:23:51;;;;;;;2.50;2.13;;;;;;;;;;5055466;28;20044;-65
2024/02/24 14:26:17;;;;;;;2.20;2.00;;;;;;;;;;5055501;28;20028;-65
2024/02/24 14:28:43;;;;;;;1.77;1.67;;;;;;;;;;5057018;28;20116;-65
2024/02/24 14:31:08;;;;;;;2.72;2.03;;;;;;;;;;5055542;28;20029;-65
2024/02/24 14:33:34;;;;;;;2.97;2.47;;;;;;;;;;5056634;28;20392;-65
2024/02/24 14:35:59;;;;;;;3.47;3.17;;;;;;;;;;5055182;28;20045;-65